Time;durP1;ratioP1;P1;durP2;ratioP2;P2;SDS_P1;SDS_P2;PMS_P1;PMS_P2;Temp;Humidity;BMP_temperature;BMP_pressure;BME280_temperature;BME280_humidity;BME280_pressure;Samples;Min_cycle;Max_cycle;Signal;HPM_P1;HPM_P2
2021/09/21 02:55:32;;;;;;;;;16.40;15.60;;;;;13.48;55.33;99469.09;6769170;23;97349;-61
2021/09/21 02:58:36;;;;;;;;;17.40;16.00;;;;;13.47;55.44;99464.72;6065831;28;97502;-62
2021/09/21 03:01:40;;;;;;;;;16.75;14.75;;;;;13.41;55.61;99462.91;6083997;28;97561;-62
2021/09/21 03:04:51;;;;;;;;;16.25;15.00;;;;;13.52;55.53;99473.00;6076528;28;96959;-62
2021/09/21 03:07:58;;;;;;;;;18.40;16.00;;;;;13.49;55.41;99476.13;6076449;28;97515;-62
2021/09/21 03:11:12;;;;;;;;;15.25;15.00;;;;;13.39;55.40;99467.72;6088900;28;97408;-62
2021/09/21 03:17:36;;;;;;;;;16.00;15.60;;;;;13.31;55.80;99486.97;6089730;28;96604;-62
2021/09/21 03:20:39;;;;;;;;;18.00;16.00;;;;;13.32;55.92;99485.94;6086537;28;96956;-61
2021/09/21 03:23:43;;;;;;;;;18.00;16.25;;;;;13.32;55.68;99489.47;6090376;28;96887;-63
2021/09/21 03:26:48;;;;;;;;;16.40;15.00;;;;;13.32;55.90;99483.22;6079344;28;97816;-61
2021/09/21 03:29:51;;;;;;;;;16.25;15.75;;;;;13.35;55.69;99485.47;6091743;28;97401;-61
2021/09/21 03:32:54;;;;;;;;;15.00;14.00;;;;;13.26;55.96;99489.53;6081903;28;97836;-63
2021/09/21 03:35:57;;;;;;;;;17.60;16.60;;;;;13.16;55.95;99487.34;6090131;28;97445;-62
2021/09/21 03:39:01;;;;;;;;;16.50;15.50;;;;;13.29;55.99;99483.69;6087172;28;96599;-62
2021/09/21 03:42:06;;;;;;;;;18.00;16.00;;;;;13.12;55.80;99466.34;6082918;28;97915;-62
2021/09/21 03:45:10;;;;;;;;;19.00;17.00;;;;;13.17;55.91;99482.75;6090369;28;97542;-62
2021/09/21 03:48:13;;;;;;;;;18.40;17.00;;;;;13.09;56.16;99483.84;6082090;28;97705;-63
2021/09/21 03:51:17;;;;;;;;;18.00;17.00;;;;;13.03;56.24;99482.88;6088893;28;98316;-63
2021/09/21 03:54:20;;;;;;;;;18.00;17.00;;;;;13.11;56.03;99480.91;6089484;28;96864;-61
2021/09/21 03:57:25;;;;;;;;;17.00;15.00;;;;;13.08;56.18;99478.66;6084403;28;97402;-61
2021/09/21 04:00:28;;;;;;;;;20.00;18.00;;;;;13.10;56.12;99482.78;6068513;28;97668;-63
2021/09/21 04:03:32;;;;;;;;;20.25;18.00;;;;;13.09;56.16;99486.56;6087754;28;96583;-62
2021/09/21 04:06:36;;;;;;;;;23.00;21.00;;;;;12.99;56.18;99484.38;6086429;28;98221;-63
2021/09/21 04:09:39;;;;;;;;;23.80;21.40;;;;;13.01;56.46;99484.13;6091872;28;97498;-61
2021/09/21 04:12:45;;;;;;;;;18.00;17.75;;;;;13.00;56.62;99485.16;6090527;28;96724;-61
2021/09/21 04:15:48;;;;;;;;;20.00;19.00;;;;;12.99;56.54;99489.78;6091043;28;96703;-63
2021/09/21 04:18:51;;;;;;;;;22.00;20.20;;;;;12.89;56.63;99465.09;6079936;28;96941;-63
2021/09/21 04:21:55;;;;;;;;;21.00;19.00;;;;;12.84;56.72;99464.94;6091141;28;97885;-63
2021/09/21 04:25:00;;;;;;;;;27.00;23.00;;;;;12.97;56.73;99481.03;6089849;28;97169;-64
2021/09/21 04:28:05;;;;;;;;;25.40;21.60;;;;;13.08;56.48;99492.19;6083960;28;97997;-62
2021/09/21 04:31:10;;;;;;;;;20.60;20.00;;;;;13.09;56.27;99485.72;6085279;28;97514;-63
2021/09/21 04:34:15;;;;;;;;;21.00;20.25;;;;;13.16;56.29;99490.03;6086685;28;97098;-61
2021/09/21 04:37:18;;;;;;;;;23.50;21.25;;;;;13.19;56.29;99496.91;6085648;28;96637;-62
2021/09/21 04:40:21;;;;;;;;;21.40;19.00;;;;;13.20;55.98;99488.53;6091576;28;97408;-63
2021/09/21 05:13:53;;;;;;;;;24.00;21.80;;;;;13.72;55.34;99522.38;6822644;23;97642;-63
2021/09/21 05:16:57;;;;;;;;;23.20;22.20;;;;;13.83;55.15;99529.72;6109891;28;97743;-63
2021/09/21 05:20:00;;;;;;;;;24.40;22.40;;;;;13.84;55.02;99527.84;6102392;28;96556;-61
2021/09/21 05:23:04;;;;;;;;;23.00;21.50;;;;;13.86;54.97;99542.00;6103638;28;97139;-63
2021/09/21 05:26:07;;;;;;;;;23.60;20.60;;;;;13.89;54.98;99538.81;6112425;28;96535;-63
2021/09/21 05:29:12;;;;;;;;;23.00;22.00;;;;;13.97;55.13;99553.97;6090744;28;96609;-62
2021/09/21 05:32:15;;;;;;;;;23.00;21.00;;;;;14.02;54.99;99554.94;6090420;28;96660;-62
2021/09/21 05:35:18;;;;;;;;;24.33;22.00;;;;;14.06;54.88;99558.03;6073721;28;97467;-64
2021/09/21 05:38:22;;;;;;;;;24.00;23.00;;;;;14.12;54.82;99559.84;6070378;28;98602;-61
2021/09/21 05:41:26;;;;;;;;;24.00;22.50;;;;;14.14;54.74;99565.84;6082221;28;97489;-61
2021/09/21 05:44:30;;;;;;;;;22.00;20.50;;;;;14.26;54.67;99564.84;6085667;28;96563;-63
2021/09/21 05:47:34;;;;;;;;;26.00;23.00;;;;;14.29;54.49;99567.09;6088328;28;98051;-62
2021/09/21 05:50:37;;;;;;;;;20.00;19.00;;;;;14.44;54.24;99568.59;6072333;28;97738;-61
2021/09/21 05:53:40;;;;;;;;;23.00;21.00;;;;;14.50;54.13;99568.53;6080466;28;97477;-61
2021/09/21 05:56:43;;;;;;;;;25.00;22.25;;;;;14.60;54.11;99584.25;6087446;28;97824;-61
2021/09/21 05:59:48;;;;;;;;;25.20;23.20;;;;;14.62;54.27;99582.94;6074094;28;97067;-62
2021/09/21 06:02:52;;;;;;;;;26.00;23.00;;;;;14.73;53.98;99578.59;6088349;28;97249;-63
2021/09/21 06:05:55;;;;;;;;;31.00;27.40;;;;;14.77;54.17;99577.09;6089913;28;96927;-63
2021/09/21 06:08:59;;;;;;;;;30.60;23.60;;;;;14.81;54.09;99580.97;6083065;28;97794;-62
2021/09/21 06:12:02;;;;;;;;;25.60;25.40;;;;;14.97;53.88;99593.91;6068639;28;97195;-61
2021/09/21 06:15:08;;;;;;;;;27.75;25.75;;;;;15.12;53.60;99598.88;6087018;28;97635;-61
2021/09/21 06:18:11;;;;;;;;;29.00;27.00;;;;;15.14;53.00;99578.59;6090245;28;97614;-62
2021/09/21 06:21:15;;;;;;;;;29.00;27.40;;;;;15.25;53.05;99587.00;6091072;28;97406;-61
2021/09/21 06:24:18;;;;;;;;;30.60;25.00;;;;;15.31;52.63;99591.47;6089668;28;97376;-62
2021/09/21 06:27:22;;;;;;;;;32.50;27.75;;;;;15.39;52.57;99589.25;6089891;28;97750;-60
2021/09/21 06:30:26;;;;;;;;;32.00;28.00;;;;;15.37;52.52;99596.78;6090625;28;96632;-60
2021/09/21 06:33:30;;;;;;;;;29.75;25.50;;;;;15.52;52.53;99593.63;6089060;28;96533;-60
2021/09/21 06:36:34;;;;;;;;;29.50;25.75;;;;;15.61;52.46;99592.22;6088653;28;96656;-61
2021/09/21 06:39:37;;;;;;;;;28.00;26.00;;;;;15.67;52.48;99594.00;6090191;28;98059;-59
2021/09/21 06:42:42;;;;;;;;;27.50;26.50;;;;;15.67;52.31;99602.16;6090742;28;97450;-60
2021/09/21 06:45:47;;;;;;;;;28.75;25.00;;;;;15.69;52.25;99580.97;6089300;28;96739;-61
2021/09/21 06:48:51;;;;;;;;;27.00;24.67;;;;;15.79;52.01;99591.25;6089735;28;97151;-60
2021/09/21 06:51:54;;;;;;;;;26.40;24.40;;;;;15.84;52.19;99602.22;6089874;28;96631;-61
2021/09/21 06:54:58;;;;;;;;;29.67;26.67;;;;;15.96;52.12;99598.44;6088538;28;97066;-62
2021/09/21 06:58:01;;;;;;;;;29.00;26.00;;;;;16.04;51.90;99608.13;6082028;28;97466;-61
2021/09/21 07:01:06;;;;;;;;;28.00;25.00;;;;;16.08;51.87;99606.56;6084687;28;97552;-61
2021/09/21 07:04:09;;;;;;;;;27.00;25.00;;;;;16.16;51.46;99600.78;6078522;28;96926;-62
2021/09/21 07:07:13;;;;;;;;;29.00;28.00;;;;;16.14;51.33;99602.88;6088538;28;97442;-61
2021/09/21 07:10:19;;;;;;;;;27.00;26.00;;;;;16.22;51.35;99599.81;6088179;28;96722;-60
2021/09/21 07:13:23;;;;;;;;;29.20;26.60;;;;;16.40;50.59;99593.34;6080936;28;97468;-61
2021/09/21 07:16:27;;;;;;;;;29.20;26.60;;;;;16.78;49.34;99587.28;6089439;28;97577;-62
2021/09/21 07:19:31;;;;;;;;;27.20;26.00;;;;;17.62;48.40;99594.44;6087889;28;96637;-61
2021/09/21 07:22:35;;;;;;;;;31.20;27.60;;;;;18.18;46.58;99587.81;6088553;28;97049;-61
2021/09/21 07:25:38;;;;;;;;;27.60;24.00;;;;;18.88;45.70;99592.47;6075099;28;96539;-61
2021/09/21 07:28:42;;;;;;;;;34.40;30.00;;;;;19.61;43.79;99592.81;6088743;28;97507;-61
2021/09/21 07:31:48;;;;;;;;;30.00;26.00;;;;;20.18;41.81;99593.69;6087968;28;97436;-60
2021/09/21 07:34:52;;;;;;;;;31.40;28.40;;;;;21.02;40.82;99592.56;6081723;28;97497;-61
2021/09/21 07:37:55;;;;;;;;;28.00;26.00;;;;;21.63;40.03;99574.22;6081918;28;97035;-61
2021/09/21 07:40:59;;;;;;;;;28.00;26.00;;;;;22.11;37.90;99580.97;6084080;28;96635;-61
2021/09/21 07:44:03;;;;;;;;;27.00;25.00;;;;;22.62;38.01;99599.97;6083819;28;98035;-61
2021/09/21 07:47:07;;;;;;;;;27.60;25.00;;;;;22.69;37.16;99597.72;6081721;28;96601;-61
2021/09/21 07:50:11;;;;;;;;;27.00;25.60;;;;;22.71;37.27;99604.63;6082362;28;97139;-60
2021/09/21 07:53:15;;;;;;;;;26.75;24.00;;;;;22.62;37.54;99595.31;6081929;28;96756;-61
2021/09/21 07:56:18;;;;;;;;;28.40;23.00;;;;;22.66;36.80;99596.38;6084219;28;97360;-61
2021/09/21 07:59:24;;;;;;;;;22.60;21.00;;;;;23.39;35.37;99590.94;6084519;28;97520;-60
2021/09/21 08:02:29;;;;;;;;;27.00;25.40;;;;;24.13;34.70;99595.97;6082846;28;97717;-62
2021/09/21 08:05:34;;;;;;;;;25.00;22.60;;;;;24.40;33.89;99597.31;6081060;28;96632;-62
2021/09/21 08:08:39;;;;;;;;;21.00;19.00;;;;;24.69;32.61;99606.31;6081161;28;96626;-61
2021/09/21 08:11:43;;;;;;;;;22.00;21.20;;;;;24.77;32.77;99611.19;6084685;28;97755;-61
2021/09/21 08:14:49;;;;;;;;;25.00;22.00;;;;;24.52;33.39;99609.59;6091213;28;97491;-61
2021/09/21 08:17:54;;;;;;;;;20.20;20.00;;;;;24.53;32.99;99607.66;6087579;28;96723;-62
2021/09/21 08:20:58;;;;;;;;;23.00;22.40;;;;;24.13;32.74;99608.94;6073220;28;97455;-62
2021/09/21 08:24:01;;;;;;;;;21.00;19.00;;;;;23.92;33.63;99608.34;6091381;28;97527;-62
2021/09/21 08:27:04;;;;;;;;;20.00;16.20;;;;;23.47;33.34;99609.59;6073192;28;97846;-62
2021/09/21 08:30:09;;;;;;;;;21.00;16.40;;;;;23.12;34.44;99610.66;6072548;28;96744;-62
2021/09/21 08:33:13;;;;;;;;;19.00;17.75;;;;;23.02;34.81;99613.47;6072758;28;96800;-62
2021/09/21 08:36:17;;;;;;;;;23.00;19.40;;;;;22.54;34.79;99612.38;6081452;28;97623;-62
2021/09/21 08:39:21;;;;;;;;;21.00;20.00;;;;;22.50;34.76;99616.78;6073006;28;97138;-62
2021/09/21 08:42:24;;;;;;;;;20.60;18.00;;;;;22.68;35.33;99618.06;6072474;28;98181;-62
2021/09/21 08:45:29;;;;;;;;;18.60;17.00;;;;;22.66;35.23;99609.28;6083888;28;97447;-62
2021/09/21 08:48:33;;;;;;;;;18.80;18.00;;;;;23.02;34.39;99615.44;6075331;28;97314;-61
2021/09/21 08:51:38;;;;;;;;;19.40;17.60;;;;;23.39;33.71;99626.69;6070973;28;96594;-62
2021/09/21 08:54:42;;;;;;;;;18.00;16.00;;;;;23.81;33.23;99617.81;6077314;28;96760;-63
2021/09/21 08:57:46;;;;;;;;;18.00;16.00;;;;;24.28;32.72;99635.53;6082496;28;97694;-62
2021/09/21 09:00:49;;;;;;;;;16.00;15.00;;;;;24.61;31.65;99620.75;6072886;28;96523;-61
2021/09/21 09:03:55;;;;;;;;;15.75;14.00;;;;;24.85;31.34;99627.03;6079009;28;97514;-62
2021/09/21 09:07:00;;;;;;;;;13.40;13.00;;;;;25.55;30.62;99627.13;6075324;28;97967;-60
2021/09/21 09:10:07;;;;;;;;;14.25;13.25;;;;;26.37;29.22;99629.22;6070631;28;96758;-61
2021/09/21 09:13:19;;;;;;;;;14.00;13.00;;;;;26.79;28.56;99637.13;6079603;28;97432;-62
2021/09/21 09:16:24;;;;;;;;;16.00;15.00;;;;;27.06;28.35;99630.78;6092034;28;97192;-60
2021/09/21 09:19:35;;;;;;;;;13.00;12.00;;;;;26.83;27.53;99629.84;6092143;28;97522;-61
2021/09/21 09:22:38;;;;;;;;;16.00;14.00;;;;;26.82;27.89;99630.19;6091594;28;96475;-68
2021/09/21 09:25:42;;;;;;;;;15.00;13.00;;;;;26.88;28.53;99620.69;6091053;28;98221;-63
2021/09/21 09:28:45;;;;;;;;;15.00;13.00;;;;;27.04;28.04;99633.03;6090199;28;97412;-63
2021/09/21 09:31:49;;;;;;;;;13.20;12.80;;;;;27.42;27.56;99631.53;6091422;28;97040;-62
2021/09/21 09:34:58;;;;;;;;;12.60;11.00;;;;;27.02;26.70;99633.34;6089295;28;98875;-64
2021/09/21 09:38:05;;;;;;;;;13.00;12.00;;;;;26.47;29.06;99637.28;6073830;28;96666;-63
2021/09/21 09:41:13;;;;;;;;;16.00;14.40;;;;;26.51;28.65;99639.13;6090232;28;96570;-62
2021/09/21 09:44:19;;;;;;;;;14.00;13.00;;;;;26.81;28.03;99632.13;6090996;28;97464;-63
2021/09/21 09:47:22;;;;;;;;;12.00;12.00;;;;;27.08;27.81;99645.09;6090543;28;97616;-61
2021/09/21 09:50:29;;;;;;;;;11.00;10.00;;;;;26.85;27.27;99640.63;6082895;28;97536;-62
2021/09/21 09:53:33;;;;;;;;;11.67;10.00;;;;;26.30;28.59;99640.66;6083049;28;97425;-63
2021/09/21 09:56:36;;;;;;;;;10.80;9.80;;;;;25.79;29.40;99635.25;6094992;28;97233;-64
2021/09/21 09:59:41;;;;;;;;;11.50;11.00;;;;;25.92;29.18;99637.22;6072442;28;96497;-64
2021/09/21 10:02:44;;;;;;;;;11.00;10.20;;;;;26.66;28.08;99632.47;6080142;28;96661;-62
2021/09/21 10:05:51;;;;;;;;;13.00;12.40;;;;;27.25;28.06;99630.59;6082596;28;97436;-63
2021/09/21 10:08:54;;;;;;;;;11.75;10.75;;;;;27.73;26.08;99625.25;6076174;28;96604;-62
2021/09/21 10:12:00;;;;;;;;;11.50;11.00;;;;;27.34;26.45;99626.75;6081061;28;98189;-61
2021/09/21 10:15:04;;;;;;;;;11.00;11.00;;;;;26.85;27.26;99624.03;6090233;28;97689;-63
2021/09/21 10:18:15;;;;;;;;;11.60;9.00;;;;;26.14;28.45;99628.25;6090560;28;96644;-61
2021/09/21 10:21:30;;;;;;;;;10.80;10.80;;;;;25.55;29.46;99631.81;6091094;28;97414;-63
2021/09/21 10:24:38;;;;;;;;;13.20;12.00;;;;;24.93;30.42;99636.59;6089873;28;97696;-63
2021/09/21 10:27:42;;;;;;;;;12.00;11.33;;;;;24.37;30.84;99633.75;6090923;28;97441;-61
2021/09/21 10:30:53;;;;;;;;;14.00;12.00;;;;;24.15;31.65;99629.56;6090998;28;97140;-62
2021/09/21 10:33:57;;;;;;;;;13.00;11.20;;;;;24.85;30.80;99631.75;6089131;28;97474;-61
2021/09/21 10:37:02;;;;;;;;;11.00;10.40;;;;;25.69;29.20;99629.91;6075151;28;97991;-62
2021/09/21 10:40:08;;;;;;;;;13.00;11.00;;;;;25.89;28.33;99626.78;6090308;28;96522;-61
2021/09/21 10:43:26;;;;;;;;;10.00;9.00;;;;;25.31;28.74;99621.69;6089427;28;98737;-61
2021/09/21 10:46:29;;;;;;;;;12.40;11.40;;;;;24.57;30.46;99630.75;6087965;28;96632;-62
2021/09/21 10:49:36;;;;;;;;;13.00;11.00;;;;;24.11;31.52;99631.25;6090058;28;97472;-62
2021/09/21 10:52:41;;;;;;;;;12.00;12.00;;;;;24.28;31.40;99635.53;6089913;28;97591;-62
2021/09/21 10:55:46;;;;;;;;;13.00;12.60;;;;;24.90;30.46;99621.50;6090595;28;97526;-61
2021/09/21 10:58:53;;;;;;;;;10.80;9.80;;;;;25.69;30.16;99625.22;6089078;28;96736;-62
2021/09/21 11:01:57;;;;;;;;;13.00;11.00;;;;;26.48;29.20;99614.88;6088202;28;96747;-62
2021/09/21 11:05:01;;;;;;;;;9.00;8.00;;;;;26.88;27.54;99615.16;6087703;28;97442;-62
2021/09/21 11:08:08;;;;;;;;;9.40;8.40;;;;;26.37;27.26;99607.91;6084937;28;97496;-62
2021/09/21 11:11:11;;;;;;;;;10.00;9.00;;;;;25.74;27.79;99599.44;6100859;28;97592;-62
2021/09/21 11:14:19;;;;;;;;;10.40;10.00;;;;;26.40;27.34;99603.69;6087690;28;97330;-62
2021/09/21 11:17:24;;;;;;;;;10.00;9.00;;;;;26.33;27.87;99598.59;6088040;28;97243;-62
2021/09/21 11:20:28;;;;;;;;;11.00;10.00;;;;;25.76;28.36;99598.00;6062348;28;96808;-62
2021/09/21 11:23:35;;;;;;;;;8.00;7.00;;;;;25.19;28.96;99602.00;6081758;28;97046;-62
2021/09/21 11:26:41;;;;;;;;;8.00;8.00;;;;;24.90;28.87;99604.13;6087994;28;97474;-62
2021/09/21 11:29:45;;;;;;;;;8.00;8.00;;;;;24.88;28.51;99581.50;6087484;28;97411;-62
2021/09/21 11:32:49;;;;;;;;;7.00;7.00;;;;;24.96;28.27;99545.00;6087267;28;97579;-62
2021/09/21 11:35:53;;;;;;;;;7.40;7.00;;;;;24.78;29.38;99573.34;6085094;28;97990;-62
2021/09/21 11:39:00;;;;;;;;;8.00;7.75;;;;;24.50;29.76;99588.94;6087321;28;97448;-63
2021/09/21 11:42:04;;;;;;;;;8.00;7.80;;;;;24.28;30.77;99588.69;6056706;28;98677;-63
2021/09/21 11:45:10;;;;;;;;;6.60;6.00;;;;;24.02;30.27;99590.88;6087795;28;97607;-61
2021/09/21 11:48:15;;;;;;;;;6.00;6.00;;;;;23.98;29.46;99582.38;6090941;28;98499;-62
2021/09/21 11:51:18;;;;;;;;;6.00;5.00;;;;;23.84;29.48;99597.13;6091124;28;96684;-63
2021/09/21 11:54:23;;;;;;;;;6.50;5.00;;;;;23.70;29.58;99597.00;6090283;28;98975;-62
2021/09/21 11:57:28;;;;;;;;;5.00;5.00;;;;;23.57;29.64;99594.91;6092006;28;96511;-62
2021/09/21 12:00:33;;;;;;;;;7.80;6.00;;;;;23.30;30.55;99578.91;6091733;28;97634;-62
2021/09/21 12:03:37;;;;;;;;;5.60;5.00;;;;;23.61;29.14;99594.03;6105933;28;97480;-62
2021/09/21 12:06:40;;;;;;;;;5.00;5.00;;;;;24.25;28.89;99587.31;6075692;28;97516;-64
2021/09/21 12:09:47;;;;;;;;;4.75;3.75;;;;;25.09;28.38;99587.53;6086201;28;96928;-65
2021/09/21 12:13:04;;;;;;;;;5.00;5.00;;;;;25.81;27.07;99575.81;6089866;28;96775;-62
2021/09/21 12:16:09;;;;;;;;;4.75;4.75;;;;;26.36;26.51;99577.81;6092361;28;96749;-63
2021/09/21 12:19:18;;;;;;;;;6.40;6.00;;;;;26.63;25.76;99577.78;6088730;28;96776;-61
2021/09/21 12:22:22;;;;;;;;;8.00;5.00;;;;;26.88;26.32;99577.19;6071909;28;99684;-62
2021/09/21 12:25:32;;;;;;;;;6.00;6.00;;;;;26.98;26.42;99565.91;6090544;28;96658;-63
2021/09/21 12:28:37;;;;;;;;;6.60;5.60;;;;;27.25;26.18;99564.97;6085924;28;97475;-63
2021/09/21 12:31:43;;;;;;;;;5.00;5.00;;;;;27.37;25.18;99572.69;6088868;28;97255;-62
2021/09/21 12:34:47;;;;;;;;;7.00;6.00;;;;;27.42;25.22;99567.84;6081412;28;97467;-63
2021/09/21 12:37:53;;;;;;;;;6.00;5.50;;;;;27.23;25.11;99575.53;6081894;28;97132;-63
2021/09/21 12:40:59;;;;;;;;;5.00;5.00;;;;;27.24;24.98;99579.94;6104368;28;97401;-62
2021/09/21 12:44:06;;;;;;;;;5.20;5.00;;;;;27.01;25.28;99579.13;6085207;28;98131;-63
2021/09/21 12:47:09;;;;;;;;;6.75;6.00;;;;;26.50;25.64;99581.38;6073040;28;97523;-61
2021/09/21 12:50:14;;;;;;;;;8.00;6.00;;;;;25.81;26.65;99586.88;6082686;28;98013;-63
2021/09/21 12:53:20;;;;;;;;;6.00;6.00;;;;;25.38;27.65;99577.13;6071244;28;96575;-63
2021/09/21 12:56:24;;;;;;;;;6.00;5.60;;;;;24.84;28.22;99572.19;6088672;28;97458;-62
2021/09/21 12:59:30;;;;;;;;;8.00;6.40;;;;;24.40;29.07;99575.28;6085724;28;96778;-63
2021/09/21 13:02:34;;;;;;;;;6.00;5.00;;;;;24.22;29.75;99568.63;6089401;28;97305;-62
2021/09/21 13:05:39;;;;;;;;;6.00;6.00;;;;;24.31;29.97;99566.03;6073017;28;97428;-64
2021/09/21 13:08:42;;;;;;;;;6.00;6.00;;;;;24.73;29.36;99573.47;6084943;28;97469;-62
2021/09/21 13:11:47;;;;;;;;;7.00;6.00;;;;;25.07;27.89;99570.50;6084264;28;97267;-62
2021/09/21 13:14:50;;;;;;;;;6.00;5.00;;;;;25.13;27.70;99536.16;6087910;28;97268;-61
2021/09/21 13:17:54;;;;;;;;;7.00;6.00;;;;;25.23;27.13;99567.16;6088877;28;97719;-62
2021/09/21 13:20:57;;;;;;;;;5.80;5.80;;;;;25.00;27.76;99552.38;6082830;28;96558;-62
2021/09/21 13:24:01;;;;;;;;;6.00;6.00;;;;;24.69;27.79;99547.56;6081191;28;98041;-61
2021/09/21 13:27:05;;;;;;;;;6.00;5.00;;;;;24.39;28.58;99559.84;6070635;28;96629;-63
2021/09/21 13:30:11;;;;;;;;;7.00;6.00;;;;;24.01;29.03;99556.16;6083958;28;97401;-62
2021/09/21 13:33:14;;;;;;;;;5.00;4.00;;;;;23.83;29.51;99556.94;6069159;28;97833;-61
2021/09/21 13:36:18;;;;;;;;;6.00;6.00;;;;;23.78;29.36;99563.31;6068286;28;97449;-62
2021/09/21 13:39:22;;;;;;;;;5.00;4.80;;;;;23.57;29.88;99553.63;6073972;28;96479;-62
2021/09/21 13:42:26;;;;;;;;;5.00;5.00;;;;;23.33;29.95;99551.63;6072039;28;97472;-62
2021/09/21 13:45:30;;;;;;;;;4.20;4.20;;;;;23.04;30.45;99542.53;6082447;28;97516;-62
2021/09/21 13:48:33;;;;;;;;;7.00;6.00;;;;;22.83;30.75;99541.03;6083817;28;97518;-62
2021/09/21 13:51:36;;;;;;;;;4.60;4.00;;;;;22.72;30.79;99539.47;6083824;28;97564;-62
2021/09/21 13:54:40;;;;;;;;;6.00;5.60;;;;;22.49;31.44;99538.19;6087683;28;96720;-62
2021/09/21 13:57:45;;;;;;;;;5.25;5.00;;;;;22.23;31.76;99517.47;6087518;28;97124;-62
2021/09/21 14:00:48;;;;;;;;;5.00;5.00;;;;;22.23;32.27;99548.53;6085722;28;97501;-61
2021/09/21 14:03:52;;;;;;;;;7.00;6.20;;;;;22.13;32.37;99545.00;6081389;28;97303;-61
2021/09/21 14:06:55;;;;;;;;;7.50;6.00;;;;;22.00;32.83;99538.16;6080117;28;97185;-62
2021/09/21 14:10:00;;;;;;;;;5.00;5.00;;;;;22.00;33.07;99539.00;6082433;28;98081;-62
2021/09/21 14:13:05;;;;;;;;;7.00;7.00;;;;;22.01;33.14;99539.81;6082742;28;97315;-62
2021/09/21 14:16:09;;;;;;;;;6.00;5.00;;;;;22.07;33.19;99538.69;6071408;28;97823;-62
2021/09/21 14:19:14;;;;;;;;;5.60;5.60;;;;;22.05;33.49;99532.66;6078853;28;97429;-61
2021/09/21 14:22:18;;;;;;;;;6.00;5.00;;;;;22.08;33.20;99536.78;6069217;28;98438;-61
2021/09/21 14:25:22;;;;;;;;;7.60;7.00;;;;;22.02;33.62;99525.81;6078822;28;96649;-61
2021/09/21 14:28:27;;;;;;;;;6.00;5.00;;;;;22.01;33.42;99528.81;6077671;28;96948;-62
2021/09/21 14:31:30;;;;;;;;;7.00;7.00;;;;;21.97;33.85;99536.00;6087285;28;96685;-61
2021/09/21 14:34:35;;;;;;;;;7.00;7.00;;;;;21.85;34.55;99529.94;6066112;28;97846;-62
2021/09/21 14:37:39;;;;;;;;;6.00;5.75;;;;;21.78;34.62;99530.25;6073427;28;96686;-61
2021/09/21 14:40:42;;;;;;;;;6.00;6.00;;;;;21.60;34.85;99533.59;6082943;28;98575;-62
2021/09/21 14:43:47;;;;;;;;;6.80;6.00;;;;;21.42;35.40;99515.81;6087083;28;97443;-62
2021/09/21 14:46:51;;;;;;;;;6.50;6.00;;;;;21.34;35.96;99542.97;6085808;28;96662;-62
2021/09/21 14:49:54;;;;;;;;;9.00;8.00;;;;;21.16;36.64;99541.59;6086720;28;97271;-62
2021/09/21 14:52:58;;;;;;;;;8.00;7.67;;;;;20.95;38.16;99542.69;6067888;28;97791;-62
2021/09/21 14:56:02;;;;;;;;;6.80;5.80;;;;;20.64;38.77;99520.72;6087373;28;97500;-62
2021/09/21 14:59:07;;;;;;;;;8.00;8.00;;;;;20.65;39.28;99543.47;6083553;28;97992;-62
2021/09/21 15:02:10;;;;;;;;;8.60;8.00;;;;;20.49;39.70;99552.75;6078789;28;97436;-62
2021/09/21 15:05:14;;;;;;;;;9.00;8.00;;;;;20.35;40.50;99551.59;6079134;28;97485;-62
2021/09/21 15:08:17;;;;;;;;;9.00;9.00;;;;;20.18;41.44;99557.28;6073439;28;97508;-61
2021/09/21 15:11:20;;;;;;;;;8.00;8.00;;;;;20.08;41.46;99560.81;6072716;28;97542;-61
2021/09/21 15:14:25;;;;;;;;;9.20;8.80;;;;;19.90;42.36;99564.81;6079461;28;96951;-61
2021/09/21 15:17:28;;;;;;;;;7.20;7.00;;;;;19.84;41.81;99576.81;6087669;28;96775;-61
2021/09/21 15:20:32;;;;;;;;;6.00;6.00;;;;;19.68;42.42;99586.03;6087201;28;97009;-62
2021/09/21 15:23:35;;;;;;;;;7.40;7.40;;;;;19.50;43.08;99574.72;6088002;28;97470;-61
2021/09/21 15:26:38;;;;;;;;;6.50;5.50;;;;;19.48;43.34;99579.59;6082506;28;97528;-61
2021/09/21 15:29:43;;;;;;;;;7.40;7.40;;;;;19.30;43.87;99570.69;6078865;28;96883;-61
2021/09/21 15:32:46;;;;;;;;;7.40;7.00;;;;;19.22;44.17;99570.34;6085249;28;96684;-61
2021/09/21 15:35:50;;;;;;;;;7.00;7.00;;;;;19.05;44.55;99567.75;6102097;28;97395;-62
2021/09/21 15:38:53;;;;;;;;;7.60;6.60;;;;;19.00;44.73;99568.53;6085189;28;97570;-60
2021/09/21 15:41:56;;;;;;;;;7.00;6.00;;;;;18.94;45.01;99561.38;6084232;28;96719;-62
2021/09/21 15:45:01;;;;;;;;;7.50;6.50;;;;;18.91;45.01;99569.28;6084539;28;96952;-61
2021/09/21 15:48:05;;;;;;;;;7.00;7.00;;;;;18.86;44.92;99564.56;6095908;28;97766;-60
2021/09/21 15:51:10;;;;;;;;;8.60;8.00;;;;;18.92;45.16;99555.34;6084397;28;96850;-61
2021/09/21 15:54:13;;;;;;;;;7.00;6.00;;;;;18.89;44.62;99555.88;6081642;28;98062;-61
2021/09/21 15:57:17;;;;;;;;;5.00;5.00;;;;;18.90;44.32;99552.06;6086381;28;97546;-61
2021/09/21 16:00:24;;;;;;;;;5.40;5.00;;;;;18.90;44.07;99554.78;6086500;28;97328;-61
2021/09/21 16:03:27;;;;;;;;;8.00;8.00;;;;;18.93;44.24;99564.38;6087285;28;96692;-62
2021/09/21 16:06:30;;;;;;;;;6.60;6.00;;;;;18.88;44.39;99569.78;6087666;28;100341;-60
2021/09/21 16:09:34;;;;;;;;;7.00;7.00;;;;;18.83;45.00;99558.81;6089250;28;97534;-61
2021/09/21 16:12:38;;;;;;;;;9.00;9.00;;;;;18.84;45.25;99566.75;6087147;28;96721;-61
2021/09/21 16:15:43;;;;;;;;;9.00;8.00;;;;;18.85;44.80;99562.94;6089221;28;97503;-61
2021/09/21 16:18:47;;;;;;;;;7.60;7.40;;;;;18.89;44.85;99576.91;6090326;28;97452;-61
2021/09/21 16:21:52;;;;;;;;;9.00;9.00;;;;;18.91;45.20;99577.47;6080237;28;99655;-61
2021/09/21 16:24:55;;;;;;;;;10.00;8.00;;;;;18.92;45.24;99576.38;6085551;28;97537;-62
2021/09/21 16:28:01;;;;;;;;;9.00;9.00;;;;;18.88;45.05;99573.34;6072123;28;96589;-62
2021/09/21 16:31:07;;;;;;;;;10.50;9.00;;;;;18.77;45.65;99563.38;6087127;28;97466;-62
2021/09/21 16:34:10;;;;;;;;;10.00;9.00;;;;;18.79;45.59;99580.34;6088064;28;97438;-63
2021/09/21 16:37:14;;;;;;;;;11.25;11.00;;;;;18.80;45.72;99592.13;6084768;28;96659;-62
2021/09/21 16:40:17;;;;;;;;;11.00;10.00;;;;;18.78;46.26;99588.81;6104555;28;97553;-62
2021/09/21 16:43:22;;;;;;;;;10.80;10.00;;;;;18.71;46.14;99578.09;6088003;28;97440;-62
2021/09/21 16:46:30;;;;;;;;;12.00;11.00;;;;;18.71;46.26;99593.66;6083862;28;97743;-62
2021/09/21 16:49:34;;;;;;;;;14.00;12.00;;;;;18.57;46.31;99585.84;6084696;28;98283;-62
2021/09/21 16:52:39;;;;;;;;;12.20;11.80;;;;;18.66;46.03;99586.25;6086295;28;97011;-61
2021/09/21 16:55:42;;;;;;;;;13.00;12.00;;;;;18.62;46.23;99581.56;6088434;28;97313;-63
2021/09/21 16:58:48;;;;;;;;;15.00;14.00;;;;;18.53;46.56;99572.94;6086111;28;98104;-61
2021/09/21 17:01:56;;;;;;;;;13.00;12.40;;;;;18.58;46.42;99573.03;6086917;28;96979;-62
2021/09/21 17:05:00;;;;;;;;;15.60;14.60;;;;;18.52;46.63;99574.84;6088935;28;96999;-63
2021/09/21 17:08:03;;;;;;;;;12.20;12.00;;;;;18.45;46.82;99585.16;6078024;28;96944;-62
2021/09/21 17:11:08;;;;;;;;;12.50;11.50;;;;;18.30;47.09;99565.88;6084626;28;97620;-62
2021/09/21 17:14:11;;;;;;;;;12.00;11.00;;;;;18.31;47.30;99585.81;6083049;28;96844;-62
2021/09/21 17:17:16;;;;;;;;;12.50;12.00;;;;;18.28;47.13;99591.75;6085154;28;96765;-62
2021/09/21 17:25:46;;;;;;;;;12.60;12.60;;;;;18.09;47.69;99602.16;6008298;29;96683;-61
2021/09/21 17:28:49;;;;;;;;;13.00;12.00;;;;;18.07;47.65;99599.72;6002567;28;96720;-60
2021/09/21 17:31:52;;;;;;;;;15.00;13.00;;;;;17.94;48.19;99593.78;6002611;29;97156;-61
2021/09/21 17:34:57;;;;;;;;;16.20;16.00;;;;;17.94;47.96;99594.59;5998437;29;96718;-61
2021/09/21 17:38:00;;;;;;;;;15.50;15.00;;;;;17.89;48.21;99597.28;6008499;29;97295;-60
2021/09/21 17:41:04;;;;;;;;;19.40;16.00;;;;;17.87;48.24;99591.25;5997704;28;97465;-62
2021/09/21 17:44:08;;;;;;;;;14.00;13.00;;;;;17.87;48.10;99583.06;6010337;28;97258;-61
2021/09/21 17:47:11;;;;;;;;;17.00;15.00;;;;;17.80;48.74;99582.41;6035740;28;96652;-61
2021/09/21 17:50:19;;;;;;;;;17.00;15.00;;;;;17.84;48.61;99586.28;6084836;28;96952;-61